Cambria, California
Current Conditions -  °F | °C
As of 3:53 AM on Tuesday 27 Jan 2015 (Local Time) from KPRB Reporting Station
Overcast Overcast  
Wind Chill: 51°   Ceiling: 9500
Heat Index: 51°   Visibility: 10mi
Dew Point: 48°   Wind: 0mph
Humidity: 89%   Direction: NA
Pressure: 30.14"   Gusts: NA
Location:  35.55°N, 121.07°W
Report Text: KPRB 271153Z AUTO 00000KT 10SM OVC095 11/09 A3014 RMK AO2 RAE11 SLP203 P0000 60014 70014 T01060089 10144 20106 50006 TSNO
Loading
Personal Weather Stations






























Interactive Weather Map New forecast layout! Learn more

10-Day Weather Forecast

Advertisements
Track Severe Weather on mobile